sensor_id;sensor_type;location;lat;lon;timestamp;pressure;altitude;pressure_sealevel;temperature;humidity
31911;BME280;18457;52.432;16.914;2023-11-19T00:01:05;101002.73;;;3.66;93.61
31911;BME280;18457;52.432;16.914;2023-11-19T00:03:57;100990.14;;;3.58;94.03
31911;BME280;18457;52.432;16.914;2023-11-19T00:06:29;100985.17;;;3.62;94.04
31911;BME280;18457;52.432;16.914;2023-11-19T00:09:01;100979.59;;;3.58;94.16
31911;BME280;18457;52.432;16.914;2023-11-19T00:11:34;100969.13;;;3.64;93.75
31911;BME280;18457;52.432;16.914;2023-11-19T00:14:07;100949.61;;;3.60;93.57
31911;BME280;18457;52.432;16.914;2023-11-19T00:16:38;100941.34;;;3.54;93.67
31911;BME280;18457;52.432;16.914;2023-11-19T00:19:10;100940.34;;;3.48;93.79
31911;BME280;18457;52.432;16.914;2023-11-19T00:21:42;100939.45;;;3.47;93.92
31911;BME280;18457;52.432;16.914;2023-11-19T00:24:15;100935.40;;;3.39;94.22
31911;BME280;18457;52.432;16.914;2023-11-19T00:26:48;100931.64;;;3.38;94.41
31911;BME280;18457;52.432;16.914;2023-11-19T00:29:20;100925.15;;;3.33;94.83
31911;BME280;18457;52.432;16.914;2023-11-19T00:31:51;100923.63;;;3.27;95.45
31911;BME280;18457;52.432;16.914;2023-11-19T00:34:24;100919.86;;;3.26;95.76
31911;BME280;18457;52.432;16.914;2023-11-19T00:36:55;100916.74;;;3.19;96.28
31911;BME280;18457;52.432;16.914;2023-11-19T00:39:27;100914.09;;;3.20;96.59
31911;BME280;18457;52.432;16.914;2023-11-19T00:41:59;100908.98;;;3.25;96.96
31911;BME280;18457;52.432;16.914;2023-11-19T00:44:31;100897.31;;;3.34;96.27
31911;BME280;18457;52.432;16.914;2023-11-19T00:47:02;100889.87;;;3.38;95.45
31911;BME280;18457;52.432;16.914;2023-11-19T00:49:35;100889.10;;;3.34;95.03
31911;BME280;18457;52.432;16.914;2023-11-19T00:52:07;100887.88;;;3.36;95.47
31911;BME280;18457;52.432;16.914;2023-11-19T00:54:40;100877.42;;;3.29;95.88
31911;BME280;18457;52.432;16.914;2023-11-19T00:57:12;100866.66;;;3.26;96.04
31911;BME280;18457;52.432;16.914;2023-11-19T00:59:44;100857.28;;;3.31;95.98
31911;BME280;18457;52.432;16.914;2023-11-19T01:02:18;100847.13;;;3.33;95.67
31911;BME280;18457;52.432;16.914;2023-11-19T01:04:50;100835.89;;;3.35;95.74
31911;BME280;18457;52.432;16.914;2023-11-19T01:07:24;100835.01;;;3.35;95.69
31911;BME280;18457;52.432;16.914;2023-11-19T01:09:57;100831.16;;;3.28;95.92
31911;BME280;18457;52.432;16.914;2023-11-19T01:12:30;100829.66;;;3.35;95.79
31911;BME280;18457;52.432;16.914;2023-11-19T01:15:05;100826.15;;;3.26;96.12
31911;BME280;18457;52.432;16.914;2023-11-19T01:17:39;100816.60;;;3.19;96.89
31911;BME280;18457;52.432;16.914;2023-11-19T01:20:23;100819.41;;;3.15;97.05
31911;BME280;18457;52.432;16.914;2023-11-19T01:22:55;100815.68;;;3.16;97.16
31911;BME280;18457;52.432;16.914;2023-11-19T01:25:27;100818.23;;;3.21;97.44
31911;BME280;18457;52.432;16.914;2023-11-19T01:27:59;100824.80;;;3.18;97.59
31911;BME280;18457;52.432;16.914;2023-11-19T01:30:33;100820.21;;;3.22;97.31
31911;BME280;18457;52.432;16.914;2023-11-19T01:33:05;100811.58;;;3.17;97.31
31911;BME280;18457;52.432;16.914;2023-11-19T01:35:38;100804.81;;;3.19;97.34
31911;BME280;18457;52.432;16.914;2023-11-19T01:38:11;100804.20;;;3.27;97.01
31911;BME280;18457;52.432;16.914;2023-11-19T01:40:43;100803.60;;;3.36;96.18
31911;BME280;18457;52.432;16.914;2023-11-19T01:43:32;100796.63;;;3.36;96.00
31911;BME280;18457;52.432;16.914;2023-11-19T01:46:06;100786.66;;;3.23;96.44
31911;BME280;18457;52.432;16.914;2023-11-19T01:48:42;100771.10;;;3.05;97.63
31911;BME280;18457;52.432;16.914;2023-11-19T01:51:17;100750.77;;;3.06;97.74
31911;BME280;18457;52.432;16.914;2023-11-19T01:53:51;100741.36;;;3.10;97.36
31911;BME280;18457;52.432;16.914;2023-11-19T01:56:24;100740.73;;;3.03;98.09
31911;BME280;18457;52.432;16.914;2023-11-19T01:58:58;100745.98;;;2.94;98.81
31911;BME280;18457;52.432;16.914;2023-11-19T02:01:31;100739.23;;;2.96;98.63
31911;BME280;18457;52.432;16.914;2023-11-19T02:04:06;100734.21;;;2.94;99.31
31911;BME280;18457;52.432;16.914;2023-11-19T02:06:41;100727.48;;;2.99;98.74
31911;BME280;18457;52.432;16.914;2023-11-19T02:09:13;100724.09;;;2.98;98.12
31911;BME280;18457;52.432;16.914;2023-11-19T02:11:50;100718.21;;;2.98;98.17
31911;BME280;18457;52.432;16.914;2023-11-19T02:14:22;100716.44;;;2.99;97.79
31911;BME280;18457;52.432;16.914;2023-11-19T02:16:56;100712.05;;;2.91;98.63
31911;BME280;18457;52.432;16.914;2023-11-19T02:19:28;100708.98;;;3.02;98.12
31911;BME280;18457;52.432;16.914;2023-11-19T02:22:00;100699.76;;;3.09;98.20
31911;BME280;18457;52.432;16.914;2023-11-19T02:24:33;100695.63;;;3.07;98.38
31911;BME280;18457;52.432;16.914;2023-11-19T02:27:10;100685.89;;;2.97;99.40
31911;BME280;18457;52.432;16.914;2023-11-19T02:29:47;100683.80;;;3.02;98.95
31911;BME280;18457;52.432;16.914;2023-11-19T02:32:20;100680.40;;;3.00;99.58
31911;BME280;18457;52.432;16.914;2023-11-19T02:34:53;100683.85;;;3.07;99.28
31911;BME280;18457;52.432;16.914;2023-11-19T02:37:37;100682.52;;;3.15;98.47
31911;BME280;18457;52.432;16.914;2023-11-19T02:40:10;100674.89;;;3.20;98.29
31911;BME280;18457;52.432;16.914;2023-11-19T02:42:44;100667.73;;;3.19;98.35
31911;BME280;18457;52.432;16.914;2023-11-19T02:45:16;100662.95;;;3.21;98.12
31911;BME280;18457;52.432;16.914;2023-11-19T02:47:49;100663.98;;;3.19;98.09
31911;BME280;18457;52.432;16.914;2023-11-19T02:50:21;100655.03;;;3.16;98.55
31911;BME280;18457;52.432;16.914;2023-11-19T02:52:57;100645.20;;;3.14;98.95
31911;BME280;18457;52.432;16.914;2023-11-19T02:55:28;100635.17;;;3.11;99.58
31911;BME280;18457;52.432;16.914;2023-11-19T02:58:05;100634.90;;;3.20;99.42
31911;BME280;18457;52.432;16.914;2023-11-19T03:00:50;100627.11;;;3.26;98.87
31911;BME280;18457;52.432;16.914;2023-11-19T03:03:28;100625.60;;;3.17;99.32
31911;BME280;18457;52.432;16.914;2023-11-19T03:06:09;100621.35;;;3.20;99.25
31911;BME280;18457;52.432;16.914;2023-11-19T03:08:42;100607.83;;;3.26;98.83
31911;BME280;18457;52.432;16.914;2023-11-19T03:11:15;100603.02;;;3.27;98.59
31911;BME280;18457;52.432;16.914;2023-11-19T03:13:50;100591.21;;;3.24;98.83
31911;BME280;18457;52.432;16.914;2023-11-19T03:16:22;100581.01;;;3.20;99.13
31911;BME280;18457;52.432;16.914;2023-11-19T03:18:54;100570.23;;;3.14;99.17
31911;BME280;18457;52.432;16.914;2023-11-19T03:21:28;100565.46;;;3.18;99.46
31911;BME280;18457;52.432;16.914;2023-11-19T03:24:02;100568.94;;;3.30;99.46
31911;BME280;18457;52.432;16.914;2023-11-19T03:26:33;100565.77;;;3.34;98.46
31911;BME280;18457;52.432;16.914;2023-11-19T03:29:05;100556.25;;;3.28;98.75
31911;BME280;18457;52.432;16.914;2023-11-19T03:31:43;100553.88;;;3.22;99.30
31911;BME280;18457;52.432;16.914;2023-11-19T03:34:15;100546.76;;;3.23;99.38
31911;BME280;18457;52.432;16.914;2023-11-19T03:36:47;100536.40;;;3.24;99.56
31911;BME280;18457;52.432;16.914;2023-11-19T03:39:20;100526.83;;;3.30;99.54
31911;BME280;18457;52.432;16.914;2023-11-19T03:41:55;100520.00;;;3.26;99.36
31911;BME280;18457;52.432;16.914;2023-11-19T03:44:28;100507.66;;;3.22;99.46
31911;BME280;18457;52.432;16.914;2023-11-19T03:46:59;100504.98;;;3.22;99.96
31911;BME280;18457;52.432;16.914;2023-11-19T03:49:31;100494.75;;;3.15;99.86
31911;BME280;18457;52.432;16.914;2023-11-19T03:52:04;100482.66;;;3.20;99.33
31911;BME280;18457;52.432;16.914;2023-11-19T03:54:36;100481.23;;;3.22;99.03
31911;BME280;18457;52.432;16.914;2023-11-19T03:57:08;100484.42;;;3.19;98.69
31911;BME280;18457;52.432;16.914;2023-11-19T03:59:43;100484.40;;;3.15;99.08
31911;BME280;18457;52.432;16.914;2023-11-19T04:02:14;100478.72;;;3.20;98.60
31911;BME280;18457;52.432;16.914;2023-11-19T04:04:46;100466.89;;;3.11;99.20
31911;BME280;18457;52.432;16.914;2023-11-19T04:07:19;100457.15;;;2.97;99.73
31911;BME280;18457;52.432;16.914;2023-11-19T04:09:51;100458.79;;;3.01;99.88
31911;BME280;18457;52.432;16.914;2023-11-19T04:12:23;100458.47;;;3.05;99.55
31911;BME280;18457;52.432;16.914;2023-11-19T04:14:55;100455.64;;;3.09;99.29
31911;BME280;18457;52.432;16.914;2023-11-19T04:17:31;100450.71;;;3.20;98.67
31911;BME280;18457;52.432;16.914;2023-11-19T04:20:03;100442.85;;;3.19;98.34
31911;BME280;18457;52.432;16.914;2023-11-19T04:22:37;100443.76;;;3.22;98.05
31911;BME280;18457;52.432;16.914;2023-11-19T04:25:09;100445.21;;;3.26;97.72
31911;BME280;18457;52.432;16.914;2023-11-19T04:27:42;100433.79;;;3.28;97.27
31911;BME280;18457;52.432;16.914;2023-11-19T04:30:15;100421.13;;;3.29;97.21
31911;BME280;18457;52.432;16.914;2023-11-19T04:32:47;100413.10;;;3.29;97.01
31911;BME280;18457;52.432;16.914;2023-11-19T04:35:20;100418.81;;;3.30;97.11
31911;BME280;18457;52.432;16.914;2023-11-19T04:37:52;100424.54;;;3.32;96.68
31911;BME280;18457;52.432;16.914;2023-11-19T04:40:24;100426.33;;;3.33;96.59
31911;BME280;18457;52.432;16.914;2023-11-19T04:42:55;100425.61;;;3.33;96.72
31911;BME280;18457;52.432;16.914;2023-11-19T04:45:27;100424.01;;;3.34;96.52
31911;BME280;18457;52.432;16.914;2023-11-19T04:47:59;100421.33;;;3.32;96.51
31911;BME280;18457;52.432;16.914;2023-11-19T04:50:32;100416.52;;;3.33;96.59
31911;BME280;18457;52.432;16.914;2023-11-19T04:53:04;100407.55;;;3.27;97.12
31911;BME280;18457;52.432;16.914;2023-11-19T04:55:36;100406.47;;;3.24;97.96
31911;BME280;18457;52.432;16.914;2023-11-19T04:58:09;100409.88;;;3.26;97.59
31911;BME280;18457;52.432;16.914;2023-11-19T05:00:41;100409.52;;;3.29;97.11
31911;BME280;18457;52.432;16.914;2023-11-19T05:03:13;100407.73;;;3.26;97.30
31911;BME280;18457;52.432;16.914;2023-11-19T05:05:46;100406.91;;;3.09;97.96
31911;BME280;18457;52.432;16.914;2023-11-19T05:08:18;100397.10;;;3.07;98.65
31911;BME280;18457;52.432;16.914;2023-11-19T05:10:51;100389.94;;;3.04;98.66
31911;BME280;18457;52.432;16.914;2023-11-19T05:13:23;100386.50;;;2.95;99.64
31911;BME280;18457;52.432;16.914;2023-11-19T05:15:55;100373.54;;;3.06;99.24
31911;BME280;18457;52.432;16.914;2023-11-19T05:18:28;100359.46;;;3.11;98.69
31911;BME280;18457;52.432;16.914;2023-11-19T05:21:00;100357.13;;;3.10;98.92
31911;BME280;18457;52.432;16.914;2023-11-19T05:23:32;100348.04;;;3.11;99.07
31911;BME280;18457;52.432;16.914;2023-11-19T05:26:05;100353.59;;;3.14;99.07
31911;BME280;18457;52.432;16.914;2023-11-19T05:28:40;100349.25;;;3.06;99.14
31911;BME280;18457;52.432;16.914;2023-11-19T05:31:12;100345.32;;;3.01;99.57
31911;BME280;18457;52.432;16.914;2023-11-19T05:33:44;100338.54;;;3.04;99.60
31911;BME280;18457;52.432;16.914;2023-11-19T05:36:17;100326.27;;;3.11;99.18
31911;BME280;18457;52.432;16.914;2023-11-19T05:38:49;100311.83;;;3.17;99.03
31911;BME280;18457;52.432;16.914;2023-11-19T05:41:21;100308.79;;;3.13;99.11
31911;BME280;18457;52.432;16.914;2023-11-19T05:43:53;100298.05;;;3.08;99.35
31911;BME280;18457;52.432;16.914;2023-11-19T05:46:25;100291.81;;;3.06;99.68
31911;BME280;18457;52.432;16.914;2023-11-19T05:48:56;100283.95;;;3.06;99.92
31911;BME280;18457;52.432;16.914;2023-11-19T05:51:28;100283.41;;;3.05;100.00
31911;BME280;18457;52.432;16.914;2023-11-19T05:54:01;100279.86;;;3.12;100.00
31911;BME280;18457;52.432;16.914;2023-11-19T05:56:33;100272.41;;;3.23;99.94
31911;BME280;18457;52.432;16.914;2023-11-19T05:59:05;100263.14;;;3.20;99.90
31911;BME280;18457;52.432;16.914;2023-11-19T06:01:46;100257.60;;;3.18;100.00
31911;BME280;18457;52.432;16.914;2023-11-19T06:04:18;100254.90;;;3.18;100.00
31911;BME280;18457;52.432;16.914;2023-11-19T06:06:50;100250.98;;;3.22;99.95
31911;BME280;18457;52.432;16.914;2023-11-19T06:09:22;100250.08;;;3.19;100.00
31911;BME280;18457;52.432;16.914;2023-11-19T06:11:54;100243.67;;;3.21;100.00
31911;BME280;18457;52.432;16.914;2023-11-19T06:14:28;100240.29;;;3.20;100.00
31911;BME280;18457;52.432;16.914;2023-11-19T06:17:01;100239.04;;;3.21;100.00
31911;BME280;18457;52.432;16.914;2023-11-19T06:19:35;100234.59;;;3.27;99.77
31911;BME280;18457;52.432;16.914;2023-11-19T06:22:08;100232.45;;;3.28;99.47
31911;BME280;18457;52.432;16.914;2023-11-19T06:24:40;100228.14;;;3.19;99.98
31911;BME280;18457;52.432;16.914;2023-11-19T06:27:12;100224.23;;;3.27;99.66
31911;BME280;18457;52.432;16.914;2023-11-19T06:29:44;100217.98;;;3.20;99.83
31911;BME280;18457;52.432;16.914;2023-11-19T06:32:17;100209.23;;;3.22;99.96
31911;BME280;18457;52.432;16.914;2023-11-19T06:34:49;100206.92;;;3.26;99.65
31911;BME280;18457;52.432;16.914;2023-11-19T06:37:21;100197.98;;;3.19;99.76
31911;BME280;18457;52.432;16.914;2023-11-19T06:39:54;100192.64;;;3.25;99.88
31911;BME280;18457;52.432;16.914;2023-11-19T06:42:26;100186.74;;;3.22;99.71
31911;BME280;18457;52.432;16.914;2023-11-19T06:44:58;100182.64;;;3.19;99.93
31911;BME280;18457;52.432;16.914;2023-11-19T06:47:30;100179.41;;;3.15;100.00
31911;BME280;18457;52.432;16.914;2023-11-19T06:50:03;100158.88;;;3.11;100.00
31911;BME280;18457;52.432;16.914;2023-11-19T06:52:36;100166.58;;;3.20;100.00
31911;BME280;18457;52.432;16.914;2023-11-19T06:55:08;100164.09;;;3.17;100.00
31911;BME280;18457;52.432;16.914;2023-11-19T06:57:41;100157.28;;;3.16;100.00
31911;BME280;18457;52.432;16.914;2023-11-19T07:00:14;100153.88;;;3.09;100.00
31911;BME280;18457;52.432;16.914;2023-11-19T07:02:47;100150.13;;;3.02;100.00
31911;BME280;18457;52.432;16.914;2023-11-19T07:05:21;100148.71;;;3.06;100.00
31911;BME280;18457;52.432;16.914;2023-11-19T07:07:54;100151.22;;;3.16;100.00
31911;BME280;18457;52.432;16.914;2023-11-19T07:10:26;100141.59;;;3.21;100.00
31911;BME280;18457;52.432;16.914;2023-11-19T07:13:01;100132.31;;;3.25;100.00
31911;BME280;18457;52.432;16.914;2023-11-19T07:15:33;100125.54;;;3.23;100.00
31911;BME280;18457;52.432;16.914;2023-11-19T07:18:05;100108.41;;;3.24;100.00
31911;BME280;18457;52.432;16.914;2023-11-19T07:20:36;100101.27;;;3.21;99.96
31911;BME280;18457;52.432;16.914;2023-11-19T07:23:09;100091.27;;;3.25;100.00
31911;BME280;18457;52.432;16.914;2023-11-19T07:25:41;100089.84;;;3.33;99.80
31911;BME280;18457;52.432;16.914;2023-11-19T07:28:12;100084.13;;;3.30;99.81
31911;BME280;18457;52.432;16.914;2023-11-19T07:30:44;100085.20;;;3.33;99.96
31911;BME280;18457;52.432;16.914;2023-11-19T07:33:15;100085.20;;;3.36;99.49
31911;BME280;18457;52.432;16.914;2023-11-19T07:35:47;100079.13;;;3.34;99.67
31911;BME280;18457;52.432;16.914;2023-11-19T07:38:19;100065.73;;;3.35;99.17
31911;BME280;18457;52.432;16.914;2023-11-19T07:40:51;100066.98;;;3.38;99.24
31911;BME280;18457;52.432;16.914;2023-11-19T07:43:26;100069.84;;;3.46;98.79
31911;BME280;18457;52.432;16.914;2023-11-19T07:45:59;100070.37;;;3.48;98.20
31911;BME280;18457;52.432;16.914;2023-11-19T07:48:31;100066.98;;;3.39;98.38
31911;BME280;18457;52.432;16.914;2023-11-19T07:51:03;100061.82;;;3.34;99.29
31911;BME280;18457;52.432;16.914;2023-11-19T07:53:34;100061.09;;;3.39;98.64
31911;BME280;18457;52.432;16.914;2023-11-19T07:56:08;100058.05;;;3.43;98.58
31911;BME280;18457;52.432;16.914;2023-11-19T07:58:40;100058.41;;;3.50;98.14
31911;BME280;18457;52.432;16.914;2023-11-19T08:01:13;100054.66;;;3.48;98.59
31911;BME280;18457;52.432;16.914;2023-11-19T08:03:47;100053.58;;;3.56;98.63
31911;BME280;18457;52.432;16.914;2023-11-19T08:06:22;100043.55;;;3.66;97.61
31911;BME280;18457;52.432;16.914;2023-11-19T08:08:54;100035.34;;;3.65;97.34
31911;BME280;18457;52.432;16.914;2023-11-19T08:11:26;100024.45;;;3.65;97.80
31911;BME280;18457;52.432;16.914;2023-11-19T08:13:59;100018.55;;;3.64;98.24
31911;BME280;18457;52.432;16.914;2023-11-19T08:16:31;100013.73;;;3.67;98.13
31911;BME280;18457;52.432;16.914;2023-11-19T08:19:03;100004.41;;;3.74;97.67
31911;BME280;18457;52.432;16.914;2023-11-19T08:21:36;100000.30;;;3.76;97.69
31911;BME280;18457;52.432;16.914;2023-11-19T08:24:07;100003.14;;;3.82;97.54
31911;BME280;18457;52.432;16.914;2023-11-19T08:26:39;99995.09;;;3.85;97.88
31911;BME280;18457;52.432;16.914;2023-11-19T08:29:12;99987.94;;;3.86;97.68
31911;BME280;18457;52.432;16.914;2023-11-19T08:31:45;99987.93;;;3.88;98.01
31911;BME280;18457;52.432;16.914;2023-11-19T08:34:17;99980.73;;;3.98;97.56
31911;BME280;18457;52.432;16.914;2023-11-19T08:36:52;99970.03;;;3.96;97.53
31911;BME280;18457;52.432;16.914;2023-11-19T08:39:25;99964.67;;;3.98;97.67
31911;BME280;18457;52.432;16.914;2023-11-19T08:41:57;99959.84;;;3.99;97.89
31911;BME280;18457;52.432;16.914;2023-11-19T08:44:29;99955.38;;;3.99;98.52
31911;BME280;18457;52.432;16.914;2023-11-19T08:47:01;99954.30;;;3.95;98.80
31911;BME280;18457;52.432;16.914;2023-11-19T08:49:34;99950.21;;;3.91;99.40
31911;BME280;18457;52.432;16.914;2023-11-19T08:52:06;99952.39;;;3.86;99.93
31911;BME280;18457;52.432;16.914;2023-11-19T08:54:39;99948.64;;;3.86;100.00
31911;BME280;18457;52.432;16.914;2023-11-19T08:57:14;99947.75;;;3.86;100.00
31911;BME280;18457;52.432;16.914;2023-11-19T08:59:46;99948.50;;;3.75;100.00
31911;BME280;18457;52.432;16.914;2023-11-19T09:02:18;99943.86;;;3.72;100.00
31911;BME280;18457;52.432;16.914;2023-11-19T09:04:51;99944.44;;;3.64;100.00
31911;BME280;18457;52.432;16.914;2023-11-19T09:07:24;99940.52;;;3.61;100.00
31911;BME280;18457;52.432;16.914;2023-11-19T09:09:57;99934.45;;;3.63;100.00
31911;BME280;18457;52.432;16.914;2023-11-19T09:12:28;99924.42;;;3.67;100.00
31911;BME280;18457;52.432;16.914;2023-11-19T09:15:00;99922.71;;;3.50;100.00
31911;BME280;18457;52.432;16.914;2023-11-19T09:17:34;99918.79;;;3.46;100.00
31911;BME280;18457;52.432;16.914;2023-11-19T09:20:05;99914.85;;;3.53;100.00
31911;BME280;18457;52.432;16.914;2023-11-19T09:22:38;99912.87;;;3.56;100.00
31911;BME280;18457;52.432;16.914;2023-11-19T09:25:11;99901.79;;;3.58;100.00
31911;BME280;18457;52.432;16.914;2023-11-19T09:27:47;99901.11;;;3.50;100.00
31911;BME280;18457;52.432;16.914;2023-11-19T09:30:20;99896.83;;;3.45;100.00
31911;BME280;18457;52.432;16.914;2023-11-19T09:32:53;99890.78;;;3.44;100.00
31911;BME280;18457;52.432;16.914;2023-11-19T09:35:25;99887.88;;;3.55;100.00
31911;BME280;18457;52.432;16.914;2023-11-19T09:37:58;99883.77;;;3.55;100.00
31911;BME280;18457;52.432;16.914;2023-11-19T09:40:34;99879.48;;;3.56;100.00
31911;BME280;18457;52.432;16.914;2023-11-19T09:43:06;99880.38;;;3.54;100.00
31911;BME280;18457;52.432;16.914;2023-11-19T09:45:49;99876.50;;;3.42;100.00
31911;BME280;18457;52.432;16.914;2023-11-19T09:48:22;99873.30;;;3.41;100.00
31911;BME280;18457;52.432;16.914;2023-11-19T09:50:56;99878.48;;;3.37;100.00
31911;BME280;18457;52.432;16.914;2023-11-19T09:53:29;99871.89;;;3.34;100.00
31911;BME280;18457;52.432;16.914;2023-11-19T09:56:03;99873.31;;;3.35;100.00
31911;BME280;18457;52.432;16.914;2023-11-19T09:58:36;99872.98;;;3.26;100.00
31911;BME280;18457;52.432;16.914;2023-11-19T10:01:09;99862.98;;;3.29;100.00
31911;BME280;18457;52.432;16.914;2023-11-19T10:03:48;99862.11;;;3.23;100.00
31911;BME280;18457;52.432;16.914;2023-11-19T10:06:24;99856.23;;;3.17;100.00
31911;BME280;18457;52.432;16.914;2023-11-19T10:08:58;99853.36;;;3.24;100.00
31911;BME280;18457;52.432;16.914;2023-11-19T10:11:31;99847.48;;;3.19;100.00
31911;BME280;18457;52.432;16.914;2023-11-19T10:14:05;99840.34;;;3.21;100.00
31911;BME280;18457;52.432;16.914;2023-11-19T10:16:39;99839.63;;;3.23;100.00
31911;BME280;18457;52.432;16.914;2023-11-19T10:19:20;99838.38;;;3.23;100.00
31911;BME280;18457;52.432;16.914;2023-11-19T10:21:53;99837.48;;;3.24;100.00
31911;BME280;18457;52.432;16.914;2023-11-19T10:24:34;99835.16;;;3.24;100.00
31911;BME280;18457;52.432;16.914;2023-11-19T10:27:13;99825.34;;;3.28;100.00
31911;BME280;18457;52.432;16.914;2023-11-19T10:29:47;99819.63;;;3.26;100.00
31911;BME280;18457;52.432;16.914;2023-11-19T10:32:20;99808.96;;;3.17;100.00
31911;BME280;18457;52.432;16.914;2023-11-19T10:35:07;99804.32;;;3.17;100.00
31911;BME280;18457;52.432;16.914;2023-11-19T10:37:44;99798.42;;;3.17;100.00
31911;BME280;18457;52.432;16.914;2023-11-19T10:40:18;99803.41;;;3.21;100.00
31911;BME280;18457;52.432;16.914;2023-11-19T10:43:03;99806.42;;;3.23;100.00
31911;BME280;18457;52.432;16.914;2023-11-19T10:45:36;99801.43;;;3.23;100.00
31911;BME280;18457;52.432;16.914;2023-11-19T10:48:10;99791.45;;;3.23;100.00
31911;BME280;18457;52.432;16.914;2023-11-19T10:50:45;99768.98;;;3.16;100.00
31911;BME280;18457;52.432;16.914;2023-11-19T10:53:20;99730.80;;;3.14;100.00
31911;BME280;18457;52.432;16.914;2023-11-19T10:55:55;99743.15;;;3.10;100.00
31911;BME280;18457;52.432;16.914;2023-11-19T10:58:34;99756.33;;;3.15;100.00
31911;BME280;18457;52.432;16.914;2023-11-19T11:01:13;99760.27;;;3.13;100.00
31911;BME280;18457;52.432;16.914;2023-11-19T11:03:48;99752.80;;;3.08;100.00
31911;BME280;18457;52.432;16.914;2023-11-19T11:06:25;99736.55;;;3.09;100.00
31911;BME280;18457;52.432;16.914;2023-11-19T11:08:59;99722.23;;;3.14;100.00
31911;BME280;18457;52.432;16.914;2023-11-19T11:11:33;99722.41;;;3.17;100.00
31911;BME280;18457;52.432;16.914;2023-11-19T11:14:06;99719.89;;;3.20;100.00
31911;BME280;18457;52.432;16.914;2023-11-19T11:16:43;99715.61;;;3.20;100.00
31911;BME280;18457;52.432;16.914;2023-11-19T11:19:17;99716.33;;;3.18;100.00
31911;BME280;18457;52.432;16.914;2023-11-19T11:21:53;99711.55;;;3.13;100.00
31911;BME280;18457;52.432;16.914;2023-11-19T11:24:37;99695.87;;;3.08;100.00
31911;BME280;18457;52.432;16.914;2023-11-19T11:27:45;99684.41;;;3.14;100.00
31911;BME280;18457;52.432;16.914;2023-11-19T11:30:35;99678.29;;;3.26;100.00
31911;BME280;18457;52.432;16.914;2023-11-19T11:33:24;99679.70;;;3.28;100.00
31911;BME280;18457;52.432;16.914;2023-11-19T11:36:06;99673.80;;;3.30;100.00
31911;BME280;18457;52.432;16.914;2023-11-19T11:38:45;99671.36;;;3.18;100.00
31911;BME280;18457;52.432;16.914;2023-11-19T11:41:21;99671.42;;;3.11;100.00
31911;BME280;18457;52.432;16.914;2023-11-19T11:44:00;99664.88;;;3.02;100.00
31911;BME280;18457;52.432;16.914;2023-11-19T11:46:56;99667.70;;;3.06;100.00
31911;BME280;18457;52.432;16.914;2023-11-19T11:49:29;99666.27;;;3.08;100.00
31911;BME280;18457;52.432;16.914;2023-11-19T11:52:04;99657.18;;;3.05;100.00
31911;BME280;18457;52.432;16.914;2023-11-19T11:54:36;99649.70;;;3.04;100.00
31911;BME280;18457;52.432;16.914;2023-11-19T11:57:13;99641.95;;;3.14;100.00
31911;BME280;18457;52.432;16.914;2023-11-19T11:59:50;99638.58;;;3.13;100.00
31911;BME280;18457;52.432;16.914;2023-11-19T12:02:24;99631.35;;;3.25;100.00
31911;BME280;18457;52.432;16.914;2023-11-19T12:04:57;99630.59;;;3.32;100.00
31911;BME280;18457;52.432;16.914;2023-11-19T12:07:32;99623.80;;;3.33;100.00
31911;BME280;18457;52.432;16.914;2023-11-19T12:10:09;99621.46;;;3.35;100.00
31911;BME280;18457;52.432;16.914;2023-11-19T12:12:43;99613.40;;;3.39;100.00
31911;BME280;18457;52.432;16.914;2023-11-19T12:15:15;99603.57;;;3.40;100.00
31911;BME280;18457;52.432;16.914;2023-11-19T12:17:51;99604.48;;;3.39;100.00
31911;BME280;18457;52.432;16.914;2023-11-19T12:20:24;99604.69;;;3.34;100.00
31911;BME280;18457;52.432;16.914;2023-11-19T12:23:05;99597.97;;;3.26;100.00
31911;BME280;18457;52.432;16.914;2023-11-19T12:25:39;99600.92;;;3.36;100.00
31911;BME280;18457;52.432;16.914;2023-11-19T12:28:14;99585.76;;;3.36;100.00
31911;BME280;18457;52.432;16.914;2023-11-19T12:30:48;99582.17;;;3.37;100.00
31911;BME280;18457;52.432;16.914;2023-11-19T12:33:21;99582.85;;;3.42;100.00
31911;BME280;18457;52.432;16.914;2023-11-19T12:35:51;99590.65;;;3.48;100.00
31911;BME280;18457;52.432;16.914;2023-11-19T12:38:25;99585.17;;;3.42;100.00
31911;BME280;18457;52.432;16.914;2023-11-19T12:41:08;99580.52;;;3.45;100.00
31911;BME280;18457;52.432;16.914;2023-11-19T12:43:42;99579.07;;;3.45;100.00
31911;BME280;18457;52.432;16.914;2023-11-19T12:46:21;99577.88;;;3.41;100.00
31911;BME280;18457;52.432;16.914;2023-11-19T12:48:54;99576.26;;;3.39;100.00
31911;BME280;18457;52.432;16.914;2023-11-19T12:51:32;99580.94;;;3.37;100.00
31911;BME280;18457;52.432;16.914;2023-11-19T12:54:05;99576.63;;;3.38;100.00
31911;BME280;18457;52.432;16.914;2023-11-19T12:56:35;99573.99;;;3.35;100.00
31911;BME280;18457;52.432;16.914;2023-11-19T12:59:15;99572.81;;;3.46;100.00
31911;BME280;18457;52.432;16.914;2023-11-19T13:01:56;99560.55;;;3.40;100.00
31911;BME280;18457;52.432;16.914;2023-11-19T13:04:31;99555.80;;;3.34;100.00
31911;BME280;18457;52.432;16.914;2023-11-19T13:07:04;99559.15;;;3.38;100.00
31911;BME280;18457;52.432;16.914;2023-11-19T13:09:37;99551.36;;;3.49;100.00
31911;BME280;18457;52.432;16.914;2023-11-19T13:12:16;99543.50;;;3.50;100.00
31911;BME280;18457;52.432;16.914;2023-11-19T13:14:48;99538.60;;;3.58;100.00
31911;BME280;18457;52.432;16.914;2023-11-19T13:17:22;99540.13;;;3.65;100.00
31911;BME280;18457;52.432;16.914;2023-11-19T13:19:54;99541.25;;;3.61;100.00
31911;BME280;18457;52.432;16.914;2023-11-19T13:22:27;99532.96;;;3.67;100.00
31911;BME280;18457;52.432;16.914;2023-11-19T13:25:00;99524.95;;;3.66;100.00